createdAt,value
2023-05-14T00:01:08.499Z,13.79
2023-05-14T00:04:01.123Z,13.76
2023-05-14T00:06:54.875Z,13.73
2023-05-14T00:09:55.464Z,13.70
2023-05-14T00:12:46.223Z,13.69
2023-05-14T00:15:57.153Z,13.68
2023-05-14T00:19:04.043Z,13.68
2023-05-14T00:22:14.708Z,13.70
2023-05-14T00:25:25.446Z,13.72
2023-05-14T00:28:16.079Z,13.74
2023-05-14T00:31:10.537Z,13.75
2023-05-14T00:34:08.838Z,13.75
2023-05-14T00:37:02.187Z,13.74
2023-05-14T00:39:57.297Z,13.72
2023-05-14T00:42:47.916Z,13.69
2023-05-14T00:45:38.713Z,13.66
2023-05-14T00:48:49.623Z,13.62
2023-05-14T00:51:46.978Z,13.60
2023-05-14T00:54:58.364Z,13.56
2023-05-14T00:57:59.478Z,13.53
2023-05-14T01:01:10.809Z,13.50
2023-05-14T01:04:12.105Z,13.46
2023-05-14T01:07:10.692Z,13.42
2023-05-14T01:10:04.267Z,13.38
2023-05-14T01:13:10.152Z,13.34
2023-05-14T01:16:13.824Z,13.33
2023-05-14T01:19:22.722Z,13.34
2023-05-14T01:22:19.431Z,13.35
2023-05-14T01:25:19.212Z,13.35
2023-05-14T01:28:20.252Z,13.37
2023-05-14T01:31:16.451Z,13.38
2023-05-14T01:34:08.127Z,13.38
2023-05-14T01:36:59.334Z,13.39
2023-05-14T01:40:11.919Z,13.35
2023-05-14T01:43:03.764Z,13.32
2023-05-14T01:46:06.221Z,13.30
2023-05-14T01:49:05.036Z,13.27
2023-05-14T01:52:16.213Z,13.23
2023-05-14T01:55:27.098Z,13.18
2023-05-14T01:58:32.751Z,13.12
2023-05-14T02:01:26.796Z,13.05
2023-05-14T02:04:21.117Z,12.99
2023-05-14T02:07:22.089Z,12.95
2023-05-14T02:10:18.205Z,12.89
2023-05-14T02:13:18.411Z,12.84
2023-05-14T02:16:20.616Z,12.82
2023-05-14T02:19:31.419Z,12.78
2023-05-14T02:22:24.418Z,12.74
2023-05-14T02:25:15.149Z,12.72
2023-05-14T02:28:07.949Z,12.68
2023-05-14T02:31:02.503Z,12.65
2023-05-14T02:34:06.627Z,12.61
2023-05-14T02:37:05.112Z,12.58
2023-05-14T02:40:10.128Z,12.55
2023-05-14T02:43:20.499Z,12.53
2023-05-14T02:46:29.928Z,12.53
2023-05-14T02:49:23.045Z,12.54
2023-05-14T02:52:33.809Z,12.56
2023-05-14T02:55:35.458Z,12.58
2023-05-14T02:58:46.272Z,12.60
2023-05-14T03:01:46.524Z,12.64
2023-05-14T03:04:57.765Z,12.69
2023-05-14T03:07:53.806Z,12.74
2023-05-14T03:10:54.556Z,12.79
2023-05-14T03:13:55.132Z,12.83
2023-05-14T03:16:46.177Z,12.84
2023-05-14T03:19:57.332Z,12.84
2023-05-14T03:23:01.054Z,12.81
2023-05-14T03:25:51.712Z,12.75
2023-05-14T03:28:51.490Z,12.68
2023-05-14T03:32:02.426Z,12.61
2023-05-14T03:35:13.785Z,12.53
2023-05-14T03:38:25.013Z,12.48
2023-05-14T03:41:20.134Z,12.43
2023-05-14T03:44:14.236Z,12.37
2023-05-14T03:47:25.001Z,12.33
2023-05-14T03:50:18.663Z,12.28
2023-05-14T03:53:29.656Z,12.23
2023-05-14T03:56:33.440Z,12.19
2023-05-14T03:59:44.451Z,12.16
2023-05-14T04:02:46.378Z,12.15
2023-05-14T04:05:40.672Z,12.15
2023-05-14T04:08:51.379Z,12.15
2023-05-14T04:12:02.443Z,12.18
2023-05-14T04:15:13.931Z,12.23
2023-05-14T04:18:05.052Z,12.29
2023-05-14T04:20:59.247Z,12.36
2023-05-14T04:24:10.327Z,12.45
2023-05-14T04:27:01.328Z,12.54
2023-05-14T04:29:56.587Z,12.63
2023-05-14T04:32:59.103Z,12.69
2023-05-14T04:36:08.852Z,12.73
2023-05-14T04:39:10.038Z,12.75
2023-05-14T04:42:13.673Z,12.77
2023-05-14T04:45:18.790Z,12.76
2023-05-14T04:48:12.387Z,12.75
2023-05-14T04:51:23.076Z,12.70
2023-05-14T04:54:33.875Z,12.64
2023-05-14T04:57:29.555Z,12.61
2023-05-14T05:00:25.560Z,12.60
2023-05-14T05:03:16.374Z,12.59
2023-05-14T05:06:16.927Z,12.58
2023-05-14T05:09:10.315Z,12.57
2023-05-14T05:12:09.016Z,12.56
2023-05-14T05:15:09.755Z,12.56
2023-05-14T05:18:03.201Z,12.55
2023-05-14T05:20:59.912Z,12.56
2023-05-14T05:23:53.835Z,12.57
2023-05-14T05:26:44.694Z,12.57
2023-05-14T05:29:38.308Z,12.59
2023-05-14T05:32:47.872Z,12.63
2023-05-14T05:35:58.885Z,12.70
2023-05-14T05:38:49.675Z,12.79
2023-05-14T05:41:43.483Z,12.89
2023-05-14T05:44:36.305Z,13.02
2023-05-14T05:47:30.473Z,13.13
2023-05-14T05:50:25.102Z,13.21
2023-05-14T05:53:27.533Z,13.28
2023-05-14T05:56:29.418Z,13.33
2023-05-14T05:59:31.666Z,13.35
2023-05-14T06:02:41.089Z,13.36
2023-05-14T06:05:37.932Z,13.35
2023-05-14T06:08:41.498Z,13.32
2023-05-14T06:11:52.638Z,13.28
2023-05-14T06:14:46.113Z,13.23
2023-05-14T06:17:41.907Z,13.22
2023-05-14T06:20:42.991Z,13.19
2023-05-14T06:23:33.614Z,13.17
2023-05-14T06:26:24.440Z,13.16
2023-05-14T06:29:19.999Z,13.15
2023-05-14T06:32:10.899Z,13.16
2023-05-14T06:35:04.299Z,13.18
2023-05-14T06:38:01.745Z,13.21
2023-05-14T06:40:55.282Z,13.23
2023-05-14T06:43:46.497Z,13.27
2023-05-14T06:46:40.129Z,13.32
2023-05-14T06:49:33.721Z,13.38
2023-05-14T06:52:29.080Z,13.46
2023-05-14T06:55:19.790Z,13.58
2023-05-14T06:58:15.733Z,13.72
2023-05-14T07:01:09.820Z,13.90
2023-05-14T07:04:08.077Z,14.05
2023-05-14T07:07:00.054Z,14.15
2023-05-14T07:09:51.223Z,14.22
2023-05-14T07:13:02.083Z,14.23
2023-05-14T07:15:57.508Z,14.23
2023-05-14T07:18:48.328Z,14.24
2023-05-14T07:21:41.926Z,14.23
2023-05-14T07:24:32.889Z,14.21
2023-05-14T07:27:28.461Z,14.17
2023-05-14T07:30:28.965Z,14.13
2023-05-14T07:33:22.334Z,14.11
2023-05-14T07:36:12.976Z,14.12
2023-05-14T07:39:06.743Z,14.13
2023-05-14T07:41:59.419Z,14.17
2023-05-14T07:45:01.104Z,14.22
2023-05-14T07:47:56.944Z,14.29
2023-05-14T07:50:49.705Z,14.37
2023-05-14T07:53:43.464Z,14.48
2023-05-14T07:56:34.031Z,14.70
2023-05-14T07:59:24.736Z,15.08
2023-05-14T08:02:18.259Z,15.46
2023-05-14T08:05:29.089Z,15.67
2023-05-14T08:08:27.591Z,15.78
2023-05-14T08:11:19.785Z,15.83
2023-05-14T08:14:14.383Z,15.87
2023-05-14T08:17:05.325Z,15.86
2023-05-14T08:19:56.158Z,15.98
2023-05-14T08:22:49.293Z,16.12
2023-05-14T08:25:39.931Z,16.16
2023-05-14T08:28:31.859Z,16.23
2023-05-14T08:31:22.750Z,16.31
2023-05-14T08:34:13.321Z,16.50
2023-05-14T08:37:07.353Z,16.63
2023-05-14T08:39:57.851Z,16.61
2023-05-14T08:42:48.951Z,16.60
2023-05-14T08:45:41.006Z,16.58
2023-05-14T08:48:36.978Z,16.61
2023-05-14T08:51:31.631Z,16.60
2023-05-14T08:54:23.862Z,16.56
2023-05-14T08:57:16.918Z,16.44
2023-05-14T09:00:12.100Z,16.29
2023-05-14T09:03:09.088Z,16.20
2023-05-14T09:06:00.555Z,16.12
2023-05-14T09:08:51.328Z,15.95
2023-05-14T09:11:44.147Z,15.81
2023-05-14T09:14:37.627Z,15.71
2023-05-14T09:17:28.861Z,15.67
2023-05-14T09:20:20.080Z,15.69
2023-05-14T09:23:10.632Z,15.72
2023-05-14T09:26:05.213Z,15.74
2023-05-14T09:28:57.171Z,15.93
2023-05-14T09:31:47.384Z,16.50
2023-05-14T09:34:38.690Z,16.84
2023-05-14T09:37:30.052Z,17.17
2023-05-14T09:40:21.364Z,17.68
2023-05-14T09:43:11.943Z,18.02
2023-05-14T09:46:02.388Z,18.39
2023-05-14T09:48:53.007Z,18.93
2023-05-14T09:51:43.458Z,19.56
2023-05-14T09:54:34.478Z,20.13
2023-05-14T09:57:24.963Z,20.32
2023-05-14T10:00:16.304Z,20.67
2023-05-14T10:03:08.183Z,21.07
2023-05-14T10:06:01.119Z,21.09
2023-05-14T10:08:55.273Z,20.76
2023-05-14T10:11:47.123Z,20.65
2023-05-14T10:14:40.498Z,20.22
2023-05-14T10:17:32.638Z,19.65
2023-05-14T10:20:24.401Z,19.36
2023-05-14T10:23:15.385Z,19.11
2023-05-14T10:26:06.623Z,18.74
2023-05-14T10:28:57.368Z,18.37
2023-05-14T10:31:49.158Z,17.88
2023-05-14T10:34:44.267Z,17.35
2023-05-14T10:37:35.011Z,16.94
2023-05-14T10:40:26.500Z,16.67
2023-05-14T10:43:17.461Z,16.49
2023-05-14T10:46:09.020Z,16.45
2023-05-14T10:49:01.813Z,16.66
2023-05-14T10:51:54.181Z,17.28
2023-05-14T10:54:47.104Z,17.48
2023-05-14T10:57:37.914Z,17.45
2023-05-14T11:00:34.546Z,17.47
2023-05-14T11:03:24.925Z,17.33
2023-05-14T11:06:18.355Z,17.07
2023-05-14T11:09:12.010Z,16.84
2023-05-14T11:12:04.461Z,16.71
2023-05-14T11:14:57.026Z,16.70
2023-05-14T11:17:48.416Z,16.93
2023-05-14T11:20:39.212Z,17.26
2023-05-14T11:23:30.142Z,17.57
2023-05-14T11:26:21.821Z,17.58
2023-05-14T11:29:12.898Z,17.36
2023-05-14T11:32:03.586Z,16.93
2023-05-14T11:34:54.345Z,16.39
2023-05-14T11:37:53.444Z,15.87
2023-05-14T11:40:44.357Z,15.44
2023-05-14T11:43:37.578Z,15.06
2023-05-14T11:46:30.238Z,14.83
2023-05-14T11:49:22.197Z,14.73
2023-05-14T11:52:14.463Z,14.67
2023-05-14T11:55:05.728Z,14.63
2023-05-14T11:57:56.413Z,14.64
2023-05-14T12:00:51.871Z,14.71
2023-05-14T12:03:43.332Z,14.74
2023-05-14T12:06:37.081Z,14.70
2023-05-14T12:09:27.936Z,14.65
2023-05-14T12:12:19.663Z,14.58
2023-05-14T12:15:14.914Z,14.64
2023-05-14T12:18:22.993Z,14.83
2023-05-14T12:21:15.008Z,15.06
2023-05-14T12:24:06.252Z,15.17
2023-05-14T12:26:57.666Z,15.21
2023-05-14T12:29:48.216Z,15.42
2023-05-14T12:32:41.094Z,15.82
2023-05-14T12:35:31.523Z,16.19
2023-05-14T12:38:22.160Z,16.12
2023-05-14T12:41:12.670Z,15.84
2023-05-14T12:44:03.805Z,15.68
2023-05-14T12:46:54.436Z,15.55
2023-05-14T12:49:45.062Z,15.41
2023-05-14T12:52:39.407Z,15.38
2023-05-14T12:55:30.750Z,15.49
2023-05-14T12:58:21.240Z,15.44
2023-05-14T13:01:11.938Z,15.39
2023-05-14T13:04:02.820Z,15.25
2023-05-14T13:06:55.520Z,15.27
2023-05-14T13:09:46.164Z,15.38
2023-05-14T13:12:40.043Z,15.43
2023-05-14T13:15:33.843Z,15.48
2023-05-14T13:18:26.976Z,15.56
2023-05-14T13:21:17.753Z,15.71
2023-05-14T13:24:10.183Z,15.95
2023-05-14T13:27:03.264Z,16.13
2023-05-14T13:29:53.618Z,16.28
2023-05-14T13:32:49.413Z,16.34
2023-05-14T13:35:49.127Z,16.25
2023-05-14T13:38:46.040Z,16.17
2023-05-14T13:41:37.968Z,16.11
2023-05-14T13:44:28.686Z,16.08
2023-05-14T13:47:22.931Z,16.15
2023-05-14T13:50:14.232Z,16.33
2023-05-14T13:53:12.526Z,16.52
2023-05-14T13:56:13.118Z,16.59
2023-05-14T13:59:03.659Z,16.67
2023-05-14T14:02:14.525Z,16.85
2023-05-14T14:05:05.587Z,17.01
2023-05-14T14:08:01.059Z,17.30
2023-05-14T14:10:58.554Z,17.77
2023-05-14T14:13:49.372Z,18.10
2023-05-14T14:16:39.975Z,18.68
2023-05-14T14:19:30.652Z,19.21
2023-05-14T14:22:21.181Z,19.51
2023-05-14T14:25:12.798Z,19.53
2023-05-14T14:28:03.861Z,19.47
2023-05-14T14:30:57.548Z,19.37
2023-05-14T14:33:50.338Z,19.36
2023-05-14T14:36:40.980Z,19.52
2023-05-14T14:39:31.626Z,19.76
2023-05-14T14:42:22.138Z,19.71
2023-05-14T14:45:16.350Z,19.50
2023-05-14T14:48:26.185Z,19.31
2023-05-14T14:51:16.681Z,19.16
2023-05-14T14:54:07.260Z,18.95
2023-05-14T14:56:57.990Z,18.87
2023-05-14T14:59:48.705Z,18.99
2023-05-14T15:02:42.124Z,19.30
2023-05-14T15:05:32.245Z,19.51
2023-05-14T15:08:24.021Z,19.95
2023-05-14T15:11:15.338Z,20.43
2023-05-14T15:14:05.774Z,20.20
2023-05-14T15:16:56.204Z,19.87
2023-05-14T15:19:46.634Z,19.54
2023-05-14T15:22:36.977Z,19.14
2023-05-14T15:25:27.735Z,18.67
2023-05-14T15:28:18.317Z,18.24
2023-05-14T15:31:08.887Z,17.91
2023-05-14T15:33:59.574Z,17.66
2023-05-14T15:36:50.073Z,17.63
2023-05-14T15:39:40.560Z,17.80
2023-05-14T15:42:31.024Z,17.96
2023-05-14T15:45:21.485Z,18.03
2023-05-14T15:48:11.948Z,17.96
2023-05-14T15:51:02.570Z,17.89
2023-05-14T15:53:53.772Z,17.77
2023-05-14T15:56:44.279Z,17.71
2023-05-14T15:59:34.739Z,17.72
2023-05-14T16:02:25.200Z,17.74
2023-05-14T16:05:16.468Z,17.80
2023-05-14T16:08:07.250Z,17.94
2023-05-14T16:10:57.743Z,18.09
2023-05-14T16:13:48.428Z,18.27
2023-05-14T16:16:39.036Z,18.44
2023-05-14T16:19:29.507Z,18.60
2023-05-14T16:22:23.152Z,18.44
2023-05-14T16:25:13.709Z,18.16
2023-05-14T16:28:04.328Z,17.84
2023-05-14T16:30:57.717Z,17.52
2023-05-14T16:33:48.270Z,17.35
2023-05-14T16:36:38.804Z,17.34
2023-05-14T16:39:29.242Z,17.37
2023-05-14T16:42:19.857Z,17.40
2023-05-14T16:45:11.910Z,17.32
2023-05-14T16:48:02.549Z,17.10
2023-05-14T16:50:53.123Z,16.88
2023-05-14T16:53:43.628Z,16.78
2023-05-14T16:56:34.260Z,16.66
2023-05-14T16:59:27.854Z,16.52
2023-05-14T17:02:18.656Z,16.46
2023-05-14T17:05:10.142Z,16.41
2023-05-14T17:08:00.710Z,16.35
2023-05-14T17:11:05.972Z,16.24
2023-05-14T17:13:56.346Z,16.10
2023-05-14T17:16:50.001Z,16.02
2023-05-14T17:19:43.582Z,16.01
2023-05-14T17:22:34.236Z,16.03
2023-05-14T17:25:35.800Z,16.01
2023-05-14T17:28:27.099Z,15.93
2023-05-14T17:31:17.948Z,15.82
2023-05-14T17:34:08.522Z,15.74
2023-05-14T17:36:59.070Z,15.67
2023-05-14T17:39:52.795Z,15.55
2023-05-14T17:42:45.539Z,15.42
2023-05-14T17:45:46.305Z,15.26
2023-05-14T17:48:44.304Z,15.06
2023-05-14T17:51:35.345Z,14.94
2023-05-14T17:54:26.127Z,14.84
2023-05-14T17:57:17.001Z,14.77
2023-05-14T18:00:11.595Z,14.73
2023-05-14T18:03:02.486Z,14.72
2023-05-14T18:05:56.745Z,14.67
2023-05-14T18:08:50.124Z,14.62
2023-05-14T18:11:40.901Z,14.59
2023-05-14T18:14:34.276Z,14.58
2023-05-14T18:17:25.020Z,14.57
2023-05-14T18:20:21.257Z,14.49
2023-05-14T18:23:11.838Z,14.44
2023-05-14T18:26:11.187Z,14.42
2023-05-14T18:29:12.778Z,14.34
2023-05-14T18:32:23.337Z,14.30
2023-05-14T18:35:23.050Z,14.22
2023-05-14T18:38:18.015Z,14.15
2023-05-14T18:41:08.564Z,14.11
2023-05-14T18:43:59.348Z,14.06
2023-05-14T18:46:49.958Z,14.00
2023-05-14T18:49:50.542Z,13.93
2023-05-14T18:52:41.464Z,13.88
2023-05-14T18:55:32.217Z,13.84
2023-05-14T18:58:22.945Z,13.81
2023-05-14T19:01:16.885Z,13.79
2023-05-14T19:04:11.954Z,13.79
2023-05-14T19:07:02.533Z,13.77
2023-05-14T19:09:53.247Z,13.74
2023-05-14T19:12:43.860Z,13.73
2023-05-14T19:15:37.019Z,13.69
2023-05-14T19:18:27.780Z,13.63
2023-05-14T19:21:20.215Z,13.56
2023-05-14T19:24:13.985Z,13.50
2023-05-14T19:27:07.601Z,13.44
2023-05-14T19:30:00.858Z,13.38
2023-05-14T19:32:51.571Z,13.30
2023-05-14T19:35:42.150Z,13.24
2023-05-14T19:38:35.085Z,13.17
2023-05-14T19:41:35.718Z,13.12
2023-05-14T19:44:29.536Z,13.10
2023-05-14T19:47:20.139Z,13.05
2023-05-14T19:50:11.552Z,12.99
2023-05-14T19:53:12.944Z,12.94
2023-05-14T19:56:06.253Z,12.88
2023-05-14T19:58:59.812Z,12.82
2023-05-14T20:01:54.814Z,12.76
2023-05-14T20:04:46.297Z,12.72
2023-05-14T20:07:40.342Z,12.68
2023-05-14T20:10:34.238Z,12.63
2023-05-14T20:13:25.381Z,12.57
2023-05-14T20:16:18.726Z,12.51
2023-05-14T20:19:29.528Z,12.43
2023-05-14T20:22:20.206Z,12.35
2023-05-14T20:25:13.791Z,12.28
2023-05-14T20:28:07.855Z,12.20
2023-05-14T20:31:04.109Z,12.13
2023-05-14T20:33:54.946Z,12.08
2023-05-14T20:36:46.087Z,12.00
2023-05-14T20:39:39.605Z,11.94
2023-05-14T20:42:30.274Z,11.88
2023-05-14T20:45:23.904Z,11.81
2023-05-14T20:48:17.769Z,11.72
2023-05-14T20:51:10.669Z,11.64
2023-05-14T20:54:21.332Z,11.55
2023-05-14T20:57:12.870Z,11.47
2023-05-14T21:00:10.055Z,11.38
2023-05-14T21:03:02.911Z,11.30
2023-05-14T21:06:00.690Z,11.22
2023-05-14T21:08:59.706Z,11.17
2023-05-14T21:12:03.050Z,11.13
2023-05-14T21:14:56.813Z,11.09
2023-05-14T21:17:57.555Z,11.05
2023-05-14T21:21:08.439Z,11.03
2023-05-14T21:24:10.400Z,11.01
2023-05-14T21:27:05.412Z,10.98
2023-05-14T21:29:59.326Z,10.95
2023-05-14T21:33:10.217Z,10.93
2023-05-14T21:36:04.206Z,10.92
2023-05-14T21:39:15.118Z,10.89
2023-05-14T21:42:06.023Z,10.83
2023-05-14T21:44:59.637Z,10.77
2023-05-14T21:47:50.392Z,10.69
2023-05-14T21:50:52.225Z,10.61
2023-05-14T21:53:55.589Z,10.53
2023-05-14T21:56:57.373Z,10.41
2023-05-14T21:59:50.440Z,10.33
2023-05-14T22:03:01.203Z,10.27
2023-05-14T22:06:12.429Z,10.19
2023-05-14T22:09:05.899Z,10.12
2023-05-14T22:12:07.345Z,10.05
2023-05-14T22:15:03.943Z,9.96
2023-05-14T22:18:06.982Z,9.87
2023-05-14T22:21:11.482Z,9.79
2023-05-14T22:24:13.511Z,9.72
2023-05-14T22:27:23.049Z,9.65
2023-05-14T22:30:34.112Z,9.57
2023-05-14T22:33:45.425Z,9.51
2023-05-14T22:36:47.298Z,9.49
2023-05-14T22:39:58.092Z,9.42
2023-05-14T22:43:02.650Z,9.36
2023-05-14T22:46:13.584Z,9.30
2023-05-14T22:49:24.342Z,9.24
2023-05-14T22:52:28.429Z,9.18
2023-05-14T22:55:39.308Z,9.11
2023-05-14T22:58:50.278Z,9.05
2023-05-14T23:02:01.048Z,9.01
2023-05-14T23:05:12.329Z,8.97
2023-05-14T23:08:23.380Z,8.92
2023-05-14T23:11:34.086Z,8.86
2023-05-14T23:14:45.282Z,8.78
2023-05-14T23:17:50.157Z,8.75
2023-05-14T23:21:01.623Z,8.74
2023-05-14T23:24:12.379Z,8.72
2023-05-14T23:27:23.646Z,8.70
2023-05-14T23:30:35.173Z,8.68
2023-05-14T23:33:47.022Z,8.65
2023-05-14T23:36:58.312Z,8.62
2023-05-14T23:40:10.746Z,8.59
2023-05-14T23:43:21.629Z,8.56
2023-05-14T23:46:32.469Z,8.54
2023-05-14T23:49:43.206Z,8.49
2023-05-14T23:52:53.235Z,8.46
2023-05-14T23:56:04.008Z,8.43
2023-05-14T23:59:15.065Z,8.39
